createdAt,value
2022-08-09T00:00:11.881Z,101516.06
2022-08-09T00:02:49.079Z,101510.94
2022-08-09T00:06:19.073Z,101513.50
2022-08-09T00:08:32.691Z,101511.63
2022-08-09T00:11:05.859Z,101505.50
2022-08-09T00:13:49.730Z,101504.44
2022-08-09T00:16:17.912Z,101510.84
2022-08-09T00:18:53.961Z,101503.72
2022-08-09T00:21:21.515Z,101509.03
2022-08-09T00:23:55.965Z,101500.94
2022-08-09T00:26:32.121Z,101503.56
2022-08-09T00:29:12.362Z,101498.34
2022-08-09T00:31:59.243Z,101499.22
2022-08-09T00:34:27.957Z,101498.28
2022-08-09T00:37:00.514Z,101493.81
2022-08-09T00:40:12.595Z,101497.66
2022-08-09T00:44:20.323Z,101493.38
2022-08-09T00:45:15.839Z,101497.19
2022-08-09T00:47:45.348Z,101493.31
2022-08-09T00:50:14.641Z,101490.69
2022-08-09T00:52:42.834Z,101489.03
2022-08-09T00:55:32.970Z,101495.25
2022-08-09T00:57:59.285Z,101496.16
2022-08-09T01:00:27.623Z,101496.84
2022-08-09T01:03:03.068Z,101499.59
2022-08-09T01:05:46.462Z,101500.41
2022-08-09T01:08:30.287Z,101500.56
2022-08-09T01:11:14.902Z,101507.72
2022-08-09T01:14:00.210Z,101508.69
2022-08-09T01:16:40.803Z,101510.56
2022-08-09T01:19:57.102Z,101510.50
2022-08-09T01:22:55.157Z,101507.00
2022-08-09T01:25:51.667Z,101509.06
2022-08-09T01:28:21.902Z,101509.81
2022-08-09T01:30:53.288Z,101495.56
2022-08-09T01:33:25.943Z,101503.81
2022-08-09T01:36:04.873Z,101498.53
2022-08-09T01:38:36.768Z,101494.00
2022-08-09T01:41:14.224Z,101495.69
2022-08-09T01:43:52.073Z,101490.41
2022-08-09T01:46:31.691Z,101488.66
2022-08-09T01:49:12.867Z,101500.38
2022-08-09T01:51:53.483Z,101497.56
2022-08-09T01:54:30.226Z,101501.25
2022-08-09T01:57:08.160Z,101492.94
2022-08-09T02:02:44.096Z,101493.56
2022-08-09T02:05:15.525Z,101493.31
2022-08-09T02:08:40.101Z,101485.34
2022-08-09T02:10:57.352Z,101492.63
2022-08-09T02:13:40.153Z,101489.97
2022-08-09T02:16:12.338Z,101487.31
2022-08-09T02:18:42.975Z,101491.69
2022-08-09T02:21:22.163Z,101489.00
2022-08-09T02:23:56.506Z,101489.16
2022-08-09T02:26:27.446Z,101485.50
2022-08-09T02:29:02.587Z,101484.94
2022-08-09T02:31:36.265Z,101496.25
2022-08-09T02:34:25.860Z,101488.41
2022-08-09T02:37:03.053Z,101481.34
2022-08-09T02:39:42.570Z,101487.53
2022-08-09T02:42:24.896Z,101479.88
2022-08-09T02:45:14.017Z,101488.88
2022-08-09T02:47:58.022Z,101485.56
2022-08-09T02:50:36.990Z,101491.09
2022-08-09T02:53:17.287Z,101488.34
2022-08-09T02:56:01.367Z,101492.09
2022-08-09T02:58:36.396Z,101492.31
2022-08-09T03:01:11.111Z,101493.31
2022-08-09T03:04:17.094Z,101497.78
2022-08-09T03:06:33.214Z,101495.25
2022-08-09T03:09:02.384Z,101490.09
2022-08-09T03:12:06.251Z,101487.47
2022-08-09T03:14:26.582Z,101486.66
2022-08-09T03:16:58.268Z,101482.31
2022-08-09T03:19:59.684Z,101485.97
2022-08-09T03:22:41.522Z,101487.09
2022-08-09T03:25:25.824Z,101486.97
2022-08-09T03:27:55.578Z,101486.28
2022-08-09T03:30:28.107Z,101490.75
2022-08-09T03:33:12.923Z,101489.88
2022-08-09T03:36:16.428Z,101489.16
2022-08-09T03:38:32.353Z,101488.19
2022-08-09T03:40:59.870Z,101486.50
2022-08-09T03:43:32.132Z,101479.34
2022-08-09T03:46:04.623Z,101484.81
2022-08-09T03:48:53.086Z,101489.66
2022-08-09T03:51:55.339Z,101488.69
2022-08-09T03:54:15.845Z,101488.63
2022-08-09T03:56:46.649Z,101479.81
2022-08-09T04:02:45.522Z,101495.19
2022-08-09T04:05:26.919Z,101490.72
2022-08-09T04:07:56.882Z,101488.88
2022-08-09T04:10:28.932Z,101487.97
2022-08-09T04:13:01.411Z,101483.59
2022-08-09T04:15:52.120Z,101483.66
2022-08-09T04:18:21.540Z,101494.44
2022-08-09T04:20:49.719Z,101493.50
2022-08-09T04:23:17.777Z,101496.16
2022-08-09T04:25:51.898Z,101497.16
2022-08-09T04:28:33.394Z,101499.75
2022-08-09T04:31:08.574Z,101499.00
2022-08-09T04:33:51.827Z,101497.16
2022-08-09T04:36:23.444Z,101508.63
2022-08-09T04:38:51.615Z,101513.09
2022-08-09T04:41:23.756Z,101515.69
2022-08-09T04:44:06.241Z,101515.81
2022-08-09T04:46:56.867Z,101514.94
2022-08-09T04:49:40.206Z,101525.66
2022-08-09T04:52:12.230Z,101525.53
2022-08-09T04:54:47.270Z,101527.44
2022-08-09T04:57:14.614Z,101526.41
2022-08-09T04:59:44.825Z,101528.97
2022-08-09T05:02:17.723Z,101537.91
2022-08-09T05:04:47.277Z,101534.31
2022-08-09T05:07:19.388Z,101534.31
2022-08-09T05:09:49.758Z,101536.97
2022-08-09T05:12:17.703Z,101528.22
2022-08-09T05:14:45.751Z,101531.69
2022-08-09T05:18:36.845Z,101530.78
2022-08-09T05:20:00.355Z,101529.78
2022-08-09T05:23:54.379Z,101529.84
2022-08-09T05:25:16.622Z,101532.44
2022-08-09T05:27:47.869Z,101535.09
2022-08-09T05:30:19.370Z,101535.09
2022-08-09T05:32:51.021Z,101535.19
2022-08-09T05:35:21.988Z,101536.09
2022-08-09T05:37:51.277Z,101541.31
2022-08-09T05:40:19.779Z,101537.84
2022-08-09T05:42:49.925Z,101539.78
2022-08-09T05:45:17.699Z,101549.44
2022-08-09T05:47:52.181Z,101537.91
2022-08-09T05:50:36.140Z,101550.25
2022-08-09T05:53:21.553Z,101552.88
2022-08-09T05:55:59.235Z,101548.44
2022-08-09T05:58:26.738Z,101551.88
2022-08-09T06:00:54.042Z,101557.16
2022-08-09T06:03:21.361Z,101568.75
2022-08-09T06:06:04.738Z,101554.38
2022-08-09T06:08:33.534Z,101555.16
2022-08-09T06:11:01.301Z,101561.28
2022-08-09T06:13:34.177Z,101565.69
2022-08-09T06:16:05.527Z,101563.06
2022-08-09T06:18:34.007Z,101567.25
2022-08-09T06:21:02.370Z,101567.38
2022-08-09T06:23:58.857Z,101572.59
2022-08-09T06:26:22.703Z,101574.13
2022-08-09T06:29:00.770Z,101577.50
2022-08-09T06:31:40.156Z,101572.97
2022-08-09T06:34:22.528Z,101582.81
2022-08-09T06:36:57.297Z,101581.66
2022-08-09T06:39:48.208Z,101587.91
2022-08-09T06:42:15.468Z,101589.44
2022-08-09T06:44:42.641Z,101596.88
2022-08-09T06:47:10.850Z,101597.72
2022-08-09T06:50:11.650Z,101605.72
2022-08-09T06:52:27.199Z,101612.66
2022-08-09T06:54:54.445Z,101617.94
2022-08-09T06:57:42.601Z,101623.41
2022-08-09T07:00:51.497Z,101622.50
2022-08-09T07:03:05.976Z,101632.53
2022-08-09T07:06:02.759Z,101633.13
2022-08-09T07:08:20.718Z,101632.41
2022-08-09T07:10:52.429Z,101638.44
2022-08-09T07:13:27.910Z,101637.38
2022-08-09T07:16:41.998Z,101638.28
2022-08-09T07:18:47.482Z,101636.38
2022-08-09T07:21:18.145Z,101643.59
2022-08-09T07:23:57.825Z,101640.56
2022-08-09T07:26:26.732Z,101640.31
2022-08-09T07:29:01.253Z,101636.78
2022-08-09T07:31:38.308Z,101634.53
2022-08-09T07:34:06.104Z,101640.66
2022-08-09T07:36:36.583Z,101641.41
2022-08-09T07:39:05.530Z,101638.56
2022-08-09T07:41:39.629Z,101644.41
2022-08-09T07:44:07.604Z,101637.31
2022-08-09T07:46:34.866Z,101640.06
2022-08-09T07:49:04.982Z,101638.19
2022-08-09T07:52:04.588Z,101640.63
2022-08-09T07:54:28.329Z,101646.44
2022-08-09T07:57:00.496Z,101643.88
2022-08-09T07:59:45.867Z,101644.34
2022-08-09T08:02:19.427Z,101649.16
2022-08-09T08:04:48.503Z,101650.56
2022-08-09T08:08:44.449Z,101640.72
2022-08-09T08:10:10.446Z,101639.75
2022-08-09T08:12:43.815Z,101643.56
2022-08-09T08:15:24.026Z,101642.97
2022-08-09T08:17:57.958Z,101642.41
2022-08-09T08:20:28.715Z,101643.75
2022-08-09T08:23:06.306Z,101643.25
2022-08-09T08:25:50.090Z,101647.94
2022-08-09T08:28:31.893Z,101649.38
2022-08-09T08:31:06.095Z,101649.72
2022-08-09T08:33:53.865Z,101649.06
2022-08-09T08:36:29.090Z,101654.44
2022-08-09T08:38:57.913Z,101650.09
2022-08-09T08:41:42.135Z,101661.72
2022-08-09T08:44:15.498Z,101664.03
2022-08-09T08:47:12.367Z,101660.25
2022-08-09T08:49:48.404Z,101660.56
2022-08-09T08:52:58.183Z,101660.19
2022-08-09T08:55:11.408Z,101665.63
2022-08-09T08:57:42.663Z,101667.31
2022-08-09T09:00:16.951Z,101667.22
2022-08-09T09:03:08.888Z,101661.56
2022-08-09T09:06:00.875Z,101669.63
2022-08-09T09:08:41.085Z,101669.56
2022-08-09T09:11:17.918Z,101671.63
2022-08-09T09:13:57.207Z,101673.81
2022-08-09T09:16:34.908Z,101673.63
2022-08-09T09:19:37.005Z,101678.34
2022-08-09T09:22:00.639Z,101671.63
2022-08-09T09:24:34.814Z,101663.19
2022-08-09T09:27:04.256Z,101668.34
2022-08-09T09:30:08.606Z,101663.88
2022-08-09T09:32:32.273Z,101670.88
2022-08-09T09:35:15.936Z,101665.84
2022-08-09T09:37:46.566Z,101666.84
2022-08-09T09:40:17.460Z,101674.69
2022-08-09T09:42:56.210Z,101674.19
2022-08-09T09:45:29.707Z,101671.22
2022-08-09T09:48:04.133Z,101678.84
2022-08-09T09:50:51.172Z,101679.63
2022-08-09T09:53:57.172Z,101669.59
2022-08-09T09:56:19.878Z,101669.69
2022-08-09T09:58:58.592Z,101677.69
2022-08-09T10:01:30.233Z,101680.31
2022-08-09T10:04:23.060Z,101678.91
2022-08-09T10:06:58.888Z,101680.09
2022-08-09T10:09:55.094Z,101686.66
2022-08-09T10:12:31.772Z,101683.75
2022-08-09T10:15:17.551Z,101681.16
2022-08-09T10:18:12.297Z,101686.84
2022-08-09T10:20:45.602Z,101685.50
2022-08-09T10:23:22.261Z,101686.31
2022-08-09T10:26:08.093Z,101688.25
2022-08-09T10:28:39.960Z,101693.69
2022-08-09T10:34:08.567Z,101689.84
2022-08-09T10:36:50.095Z,101683.97
2022-08-09T10:39:22.639Z,101682.03
2022-08-09T10:41:54.242Z,101686.63
2022-08-09T10:44:25.251Z,101680.09
2022-08-09T10:47:04.060Z,101688.66
2022-08-09T10:50:31.163Z,101684.19
2022-08-09T10:53:24.766Z,101684.94
2022-08-09T10:56:22.630Z,101683.41
2022-08-09T10:58:54.117Z,101682.94
2022-08-09T11:03:11.813Z,101679.75
2022-08-09T11:04:30.877Z,101680.75
2022-08-09T11:07:00.105Z,101674.75
2022-08-09T11:09:41.301Z,101675.88
2022-08-09T11:12:17.356Z,101678.81
2022-08-09T11:14:55.799Z,101676.69
2022-08-09T11:17:27.382Z,101673.66
2022-08-09T11:20:20.248Z,101668.63
2022-08-09T11:22:56.752Z,101678.50
2022-08-09T11:25:44.742Z,101663.66
2022-08-09T11:28:38.281Z,101662.78
2022-08-09T11:31:49.275Z,101665.38
2022-08-09T11:34:48.370Z,101667.88
2022-08-09T11:37:40.511Z,101664.66
2022-08-09T11:40:11.721Z,101665.00
2022-08-09T11:42:48.451Z,101662.25
2022-08-09T11:45:43.678Z,101657.28
2022-08-09T11:48:24.929Z,101663.81
2022-08-09T11:52:53.990Z,101667.00
2022-08-09T11:54:27.864Z,101658.84
2022-08-09T11:58:00.662Z,101678.47
2022-08-09T12:00:27.505Z,101675.75
2022-08-09T12:02:56.945Z,101673.72
2022-08-09T12:05:42.127Z,101664.66
2022-08-09T12:08:21.761Z,101665.50
2022-08-09T12:10:58.267Z,101668.63
2022-08-09T12:14:07.166Z,101665.72
2022-08-09T12:16:30.339Z,101657.63
2022-08-09T12:18:59.631Z,101656.97
2022-08-09T12:21:38.509Z,101657.59
2022-08-09T12:24:10.212Z,101651.75
2022-08-09T12:28:59.249Z,101657.81
2022-08-09T12:29:52.390Z,101648.94
2022-08-09T12:32:30.818Z,101649.00
2022-08-09T12:35:03.133Z,101648.72
2022-08-09T12:37:50.768Z,101649.66
2022-08-09T12:40:23.028Z,101650.13
2022-08-09T12:42:51.771Z,101653.81
2022-08-09T12:45:34.842Z,101650.81
2022-08-09T12:48:20.248Z,101644.47
2022-08-09T12:50:57.215Z,101640.47
2022-08-09T12:53:38.854Z,101642.06
2022-08-09T12:56:39.314Z,101631.00
2022-08-09T12:59:21.190Z,101632.19
2022-08-09T13:01:50.326Z,101627.53
2022-08-09T13:04:37.602Z,101624.91
2022-08-09T13:07:19.891Z,101627.19
2022-08-09T13:10:03.229Z,101624.59
2022-08-09T13:12:31.208Z,101617.56
2022-08-09T13:15:18.509Z,101607.63
2022-08-09T13:18:02.673Z,101611.53
2022-08-09T13:21:03.967Z,101611.25
2022-08-09T13:24:17.014Z,101601.09
2022-08-09T13:26:49.704Z,101586.09
2022-08-09T13:29:42.012Z,101593.84
2022-08-09T13:32:17.964Z,101589.38
2022-08-09T13:34:49.608Z,101583.13
2022-08-09T13:37:50.725Z,101589.84
2022-08-09T13:41:46.954Z,101592.88
2022-08-09T13:42:57.417Z,101595.44
2022-08-09T13:45:32.386Z,101602.31
2022-08-09T13:48:11.964Z,101594.22
2022-08-09T13:50:42.336Z,101597.97
2022-08-09T13:53:10.708Z,101589.41
2022-08-09T13:55:38.375Z,101598.78
2022-08-09T13:58:07.959Z,101596.66
2022-08-09T14:00:48.146Z,101594.84
2022-08-09T14:04:02.458Z,101602.34
2022-08-09T14:06:25.507Z,101588.88
2022-08-09T14:08:54.924Z,101583.81
2022-08-09T14:11:23.346Z,101592.56
2022-08-09T14:14:24.173Z,101592.09
2022-08-09T14:16:38.534Z,101593.94
2022-08-09T14:19:10.063Z,101588.63
2022-08-09T14:21:38.027Z,101584.53
2022-08-09T14:24:18.756Z,101580.78
2022-08-09T14:26:53.785Z,101577.34
2022-08-09T14:30:15.123Z,101581.53
2022-08-09T14:32:11.325Z,101584.72
2022-08-09T14:34:45.998Z,101587.50
2022-08-09T14:37:13.930Z,101576.94
2022-08-09T14:39:48.303Z,101581.22
2022-08-09T14:42:28.965Z,101585.97
2022-08-09T14:46:51.223Z,101577.19
2022-08-09T14:47:58.478Z,101564.09
2022-08-09T14:50:31.245Z,101560.81
2022-08-09T14:53:00.529Z,101557.25
2022-08-09T14:55:29.201Z,101560.59
2022-08-09T14:57:59.839Z,101557.00
2022-08-09T15:00:30.213Z,101558.22
2022-08-09T15:02:58.340Z,101553.22
2022-08-09T15:05:27.489Z,101554.81
2022-08-09T15:07:58.290Z,101554.22
2022-08-09T15:10:27.439Z,101546.31
2022-08-09T15:12:56.314Z,101551.34
2022-08-09T15:15:28.265Z,101550.75
2022-08-09T15:17:56.451Z,101557.50
2022-08-09T15:21:55.665Z,101546.13
2022-08-09T15:24:01.275Z,101552.06
2022-08-09T15:26:02.368Z,101553.25
2022-08-09T15:28:33.392Z,101551.34
2022-08-09T15:31:10.345Z,101546.09
2022-08-09T15:34:27.320Z,101548.03
2022-08-09T15:36:35.505Z,101545.03
2022-08-09T15:39:02.675Z,101544.69
2022-08-09T15:41:32.667Z,101548.16
2022-08-09T15:44:03.992Z,101550.97
2022-08-09T15:46:34.438Z,101552.53
2022-08-09T15:49:20.849Z,101552.91
2022-08-09T15:52:04.543Z,101560.75
2022-08-09T15:54:49.407Z,101560.13
2022-08-09T15:57:34.056Z,101564.25
2022-08-09T16:00:08.029Z,101568.72
2022-08-09T16:02:35.435Z,101568.84
2022-08-09T16:05:04.210Z,101574.50
2022-08-09T16:07:39.584Z,101571.13
2022-08-09T16:10:38.359Z,101552.69
2022-08-09T16:13:02.267Z,101551.63
2022-08-09T16:16:04.628Z,101553.00
2022-08-09T16:18:19.335Z,101550.47
2022-08-09T16:20:48.089Z,101540.31
2022-08-09T16:23:15.302Z,101535.94
2022-08-09T16:25:49.856Z,101544.38
2022-08-09T16:28:25.852Z,101537.13
2022-08-09T16:30:59.242Z,101537.84
2022-08-09T16:33:30.956Z,101539.91
2022-08-09T16:36:08.353Z,101543.06
2022-08-09T16:38:40.438Z,101533.56
2022-08-09T16:41:08.055Z,101537.13
2022-08-09T16:43:41.505Z,101533.59
2022-08-09T16:46:12.560Z,101530.91
2022-08-09T16:48:53.983Z,101540.53
2022-08-09T16:51:26.795Z,101543.09
2022-08-09T16:54:25.780Z,101534.13
2022-08-09T16:56:49.154Z,101540.31
2022-08-09T16:59:17.076Z,101546.56
2022-08-09T17:01:51.060Z,101550.19
2022-08-09T17:04:28.084Z,101553.94
2022-08-09T17:08:40.880Z,101556.72
2022-08-09T17:09:47.287Z,101566.16
2022-08-09T17:12:15.673Z,101560.34
2022-08-09T17:14:47.612Z,101566.50
2022-08-09T17:17:26.626Z,101570.56
2022-08-09T17:20:28.815Z,101570.63
2022-08-09T17:22:49.471Z,101561.22
2022-08-09T17:25:22.316Z,101558.25
2022-08-09T17:27:53.906Z,101552.81
2022-08-09T17:30:25.940Z,101563.69
2022-08-09T17:32:54.532Z,101562.84
2022-08-09T17:35:25.745Z,101563.63
2022-08-09T17:38:12.141Z,101564.72
2022-08-09T17:40:40.416Z,101568.78
2022-08-09T17:43:32.610Z,101575.06
2022-08-09T17:46:02.943Z,101583.69
2022-08-09T17:48:40.268Z,101598.03
2022-08-09T17:51:18.295Z,101599.78
2022-08-09T17:53:53.009Z,101599.00
2022-08-09T17:56:28.930Z,101611.69
2022-08-09T17:59:09.104Z,101607.91
2022-08-09T18:02:06.654Z,101604.84
2022-08-09T18:04:29.103Z,101597.03
2022-08-09T18:06:56.824Z,101596.72
2022-08-09T18:09:40.356Z,101596.81
2022-08-09T18:12:17.216Z,101603.19
2022-08-09T18:14:54.130Z,101586.38
2022-08-09T18:17:27.351Z,101590.66
2022-08-09T18:20:55.556Z,101590.09
2022-08-09T18:23:04.993Z,101582.59
2022-08-09T18:25:50.526Z,101590.56
2022-08-09T18:30:35.403Z,101585.88
2022-08-09T18:31:10.550Z,101580.72
2022-08-09T18:33:37.924Z,101581.28
2022-08-09T18:36:14.404Z,101576.38
2022-08-09T18:39:00.703Z,101567.50
2022-08-09T18:41:29.189Z,101571.13
2022-08-09T18:44:03.232Z,101581.59
2022-08-09T18:46:46.948Z,101585.78
2022-08-09T18:49:19.517Z,101584.59
2022-08-09T18:51:55.025Z,101583.66
2022-08-09T18:54:28.486Z,101580.31
2022-08-09T18:57:06.040Z,101580.03
2022-08-09T18:59:51.396Z,101576.16
2022-08-09T19:02:31.063Z,101575.75
2022-08-09T19:05:04.527Z,101572.28
2022-08-09T19:08:04.118Z,101572.53
2022-08-09T19:10:39.607Z,101583.41
2022-08-09T19:13:19.759Z,101595.50
2022-08-09T19:15:50.396Z,101597.53
2022-08-09T19:18:32.915Z,101599.47
2022-08-09T19:21:02.682Z,101595.44
2022-08-09T19:24:31.882Z,101590.19
2022-08-09T19:26:19.460Z,101589.63
2022-08-09T19:29:01.742Z,101574.81
2022-08-09T19:31:45.657Z,101571.19
2022-08-09T19:34:22.026Z,101567.94
2022-08-09T19:36:55.922Z,101570.78
2022-08-09T19:39:43.382Z,101561.06
2022-08-09T19:42:14.734Z,101558.44
2022-08-09T19:44:49.559Z,101561.44
2022-08-09T19:47:22.734Z,101559.09
2022-08-09T19:50:05.136Z,101559.78
2022-08-09T19:52:37.845Z,101554.91
2022-08-09T19:55:19.591Z,101562.47
2022-08-09T19:57:53.137Z,101563.00
2022-08-09T20:00:20.964Z,101557.91
2022-08-09T20:04:18.113Z,101564.13
2022-08-09T20:05:46.428Z,101562.22
2022-08-09T20:08:33.238Z,101568.09
2022-08-09T20:11:02.701Z,101553.56
2022-08-09T20:13:32.276Z,101553.38
2022-08-09T20:16:33.948Z,101553.38
2022-08-09T20:19:42.713Z,101551.50
2022-08-09T20:21:56.150Z,101548.47
2022-08-09T20:24:29.491Z,101539.66
2022-08-09T20:27:08.330Z,101527.44
2022-08-09T20:29:38.818Z,101528.31
2022-08-09T20:32:31.225Z,101533.50
2022-08-09T20:35:02.035Z,101543.97
2022-08-09T20:37:37.747Z,101533.50
2022-08-09T20:40:27.373Z,101529.75
2022-08-09T20:43:18.493Z,101526.19
2022-08-09T20:45:57.546Z,101525.44
2022-08-09T20:48:31.130Z,101530.84
2022-08-09T20:51:01.187Z,101534.38
2022-08-09T20:53:36.329Z,101527.47
2022-08-09T20:56:21.242Z,101545.72
2022-08-09T20:58:54.590Z,101535.03
2022-08-09T21:01:34.379Z,101521.59
2022-08-09T21:05:54.696Z,101509.44
2022-08-09T21:07:13.597Z,101511.47
2022-08-09T21:09:56.364Z,101530.63
2022-08-09T21:12:32.265Z,101542.00
2022-08-09T21:15:15.411Z,101547.38
2022-08-09T21:18:22.878Z,101553.16
2022-08-09T21:20:31.375Z,101555.44
2022-08-09T21:22:59.741Z,101546.25
2022-08-09T21:25:56.344Z,101530.84
2022-08-09T21:28:36.536Z,101518.06
2022-08-09T21:31:13.734Z,101519.44
2022-08-09T21:33:53.004Z,101544.34
2022-08-09T21:36:28.981Z,101545.38
2022-08-09T21:38:59.476Z,101547.75
2022-08-09T21:42:04.928Z,101548.81
2022-08-09T21:44:33.238Z,101544.03
2022-08-09T21:47:08.745Z,101544.78
2022-08-09T21:49:39.827Z,101546.66
2022-08-09T21:52:14.689Z,101541.31
2022-08-09T21:55:04.362Z,101553.81
2022-08-09T21:57:38.972Z,101558.66
2022-08-09T22:00:32.567Z,101561.00
2022-08-09T22:03:05.733Z,101569.47
2022-08-09T22:05:41.843Z,101568.28
2022-08-09T22:08:13.682Z,101575.50
2022-08-09T22:11:50.402Z,101571.81
2022-08-09T22:13:36.774Z,101580.72
2022-08-09T22:16:14.858Z,101581.78
2022-08-09T22:18:54.774Z,101589.03
2022-08-09T22:21:49.833Z,101585.75
2022-08-09T22:24:21.097Z,101593.09
2022-08-09T22:26:52.331Z,101587.19
2022-08-09T22:29:26.860Z,101593.28
2022-08-09T22:31:59.680Z,101579.13
2022-08-09T22:34:28.158Z,101586.75
2022-08-09T22:36:57.968Z,101591.19
2022-08-09T22:39:55.809Z,101583.56
2022-08-09T22:42:20.646Z,101585.25
2022-08-09T22:45:01.567Z,101577.03
2022-08-09T22:48:10.150Z,101576.50
2022-08-09T22:50:25.527Z,101575.59
2022-08-09T22:52:58.256Z,101572.09
2022-08-09T22:55:39.635Z,101570.88
2022-08-09T22:58:31.028Z,101580.19
2022-08-09T23:01:00.815Z,101584.44
2022-08-09T23:04:05.305Z,101579.19
2022-08-09T23:06:32.634Z,101580.38
2022-08-09T23:09:07.400Z,101579.91
2022-08-09T23:11:37.210Z,101580.34
2022-08-09T23:14:10.010Z,101570.47
2022-08-09T23:16:44.181Z,101581.81
2022-08-09T23:19:11.533Z,101573.34
2022-08-09T23:21:39.550Z,101578.84
2022-08-09T23:24:08.472Z,101571.91
2022-08-09T23:26:37.079Z,101584.84
2022-08-09T23:29:11.586Z,101581.03
2022-08-09T23:31:39.047Z,101583.78
2022-08-09T23:34:09.284Z,101568.78
2022-08-09T23:36:36.769Z,101568.06
2022-08-09T23:39:06.856Z,101569.59
2022-08-09T23:41:35.678Z,101574.34
2022-08-09T23:44:03.782Z,101570.03
2022-08-09T23:46:32.090Z,101568.16
2022-08-09T23:49:00.241Z,101564.69
2022-08-09T23:51:28.297Z,101563.81
2022-08-09T23:54:02.583Z,101552.38
2022-08-09T23:56:52.602Z,101560.19
2022-08-09T23:59:20.595Z,101554.84
